Time;durP1;ratioP1;P1;durP2;ratioP2;P2;SDS_P1;SDS_P2;PMS_P1;PMS_P2;Temp;Humidity;BMP_temperature;BMP_pressure;BME280_temperature;BME280_humidity;BME280_pressure;Samples;Min_cycle;Max_cycle;Signal;HPM_P1;HPM_P2
2023/07/01 00:01:34;;;;;;;6.65;4.37;;;;;;;19.43;90.32;99703.84;1442441;90;22056;-86
2023/07/01 00:04:01;;;;;;;10.00;3.58;;;;;;;19.40;90.33;99705.11;1431289;91;21580;-84
2023/07/01 00:06:27;;;;;;;7.90;3.90;;;;;;;19.35;90.28;99704.42;1433088;91;21369;-86
2023/07/01 00:08:54;;;;;;;7.93;3.87;;;;;;;19.32;90.12;99706.22;1428885;91;22301;-86
2023/07/01 00:11:21;;;;;;;7.77;3.07;;;;;;;19.28;90.18;99705.03;1478617;88;21510;-85
2023/07/01 00:13:48;;;;;;;5.57;3.43;;;;;;;19.26;90.32;99696.37;1474922;88;21525;-86
2023/07/01 00:16:15;;;;;;;7.95;3.65;;;;;;;19.23;90.38;99702.71;1470768;88;21363;-84
2023/07/01 00:18:42;;;;;;;5.63;3.83;;;;;;;19.20;90.50;99695.92;1471623;88;21370;-85
2023/07/01 00:21:09;;;;;;;5.28;3.40;;;;;;;19.19;90.51;99698.81;1471045;88;21386;-84
2023/07/01 00:23:36;;;;;;;7.23;3.33;;;;;;;19.16;90.61;99699.58;1482731;88;21532;-84
2023/07/01 00:26:02;;;;;;;7.08;3.12;;;;;;;19.12;90.57;99693.00;1474106;88;21459;-85
2023/07/01 00:28:29;;;;;;;5.80;3.53;;;;;;;19.09;90.44;99694.78;1445574;90;21370;-86
2023/07/01 00:30:55;;;;;;;4.80;3.60;;;;;;;19.05;90.36;99692.26;1477054;88;21376;-87
2023/07/01 00:33:21;;;;;;;6.13;3.53;;;;;;;19.01;90.45;99696.41;1477277;88;21400;-86
2023/07/01 00:35:47;;;;;;;8.43;4.23;;;;;;;18.98;90.59;99689.33;1477725;88;21699;-86
2023/07/01 00:38:13;;;;;;;7.33;3.50;;;;;;;18.94;90.85;99688.43;1480297;88;21348;-86
2023/07/01 00:40:39;;;;;;;6.07;3.47;;;;;;;18.94;90.87;99687.09;1472287;88;21505;-87
2023/07/01 00:43:05;;;;;;;8.57;3.60;;;;;;;18.93;90.90;99686.80;1473951;88;21356;-87
2023/07/01 00:45:31;;;;;;;8.17;3.60;;;;;;;18.94;90.71;99686.27;1473159;88;21433;-87
2023/07/01 00:47:58;;;;;;;9.77;3.43;;;;;;;18.94;90.76;99686.27;1475742;88;22338;-89
2023/07/01 00:50:24;;;;;;;6.10;3.40;;;;;;;18.92;90.70;99684.33;1461101;88;21376;-89
2023/07/01 00:52:51;;;;;;;3.77;3.30;;;;;;;18.89;90.66;99682.91;1473813;88;21547;-88
2023/07/01 00:55:17;;;;;;;7.50;3.30;;;;;;;18.84;90.90;99685.41;1474043;88;21363;-87
2023/07/01 00:57:43;;;;;;;2.73;2.43;;;;;;;18.84;90.92;99682.73;1470495;88;21459;-88
2023/07/01 01:00:12;;;;;;;4.00;2.80;;;;;;;18.83;91.06;99675.74;1474207;88;21462;-87
2023/07/01 01:02:54;;;;;;;10.00;3.50;;;;;;;18.87;90.94;99675.63;1473066;88;21385;-86
2023/07/01 01:05:31;;;;;;;5.37;3.23;;;;;;;18.88;90.71;99672.41;1477218;88;21628;-86
2023/07/01 01:08:14;;;;;;;5.53;3.70;;;;;;;18.89;90.45;99673.52;1468059;88;21519;-86
2023/07/01 01:10:45;;;;;;;3.50;2.90;;;;;;;18.87;90.24;99669.41;1476073;88;21407;-87
2023/07/01 01:13:12;;;;;;;7.55;3.35;;;;;;;18.84;89.96;99666.64;1473593;88;21466;-87
2023/07/01 01:15:39;;;;;;;14.50;3.57;;;;;;;18.81;89.74;99659.05;1476803;88;21385;-85
2023/07/01 01:18:06;;;;;;;6.40;3.30;;;;;;;18.78;89.67;99654.12;1475595;88;21362;-84
2023/07/01 01:20:36;;;;;;;5.60;3.00;;;;;;;18.75;89.74;99656.44;1471013;88;21451;-87
2023/07/01 01:23:05;;;;;;;;;;;;;;;18.69;89.96;99653.55;1477846;88;22785;-85
2023/07/01 01:25:52;;;;;;;3.13;2.33;;;;;;;18.62;90.14;99650.65;1518930;88;20883;-86
2023/07/01 01:28:18;;;;;;;11.00;3.20;;;;;;;18.59;90.00;99652.43;1467592;88;21443;-84
2023/07/01 01:30:44;;;;;;;10.00;4.13;;;;;;;18.55;90.31;99644.51;1480550;88;22074;-87
2023/07/01 01:33:10;;;;;;;4.77;2.90;;;;;;;18.51;90.56;99639.30;1469650;88;21392;-87
2023/07/01 01:35:37;;;;;;;6.87;3.33;;;;;;;18.47;90.69;99638.40;1474923;88;21363;-87
2023/07/01 01:38:11;;;;;;;7.33;3.10;;;;;;;18.43;91.00;99641.20;1478253;88;21392;-86
2023/07/01 01:40:55;;;;;;;9.63;3.60;;;;;;;18.39;91.25;99637.33;1471991;88;21372;-86
2023/07/01 01:43:30;;;;;;;4.37;2.57;;;;;;;18.36;91.18;99636.42;1451568;90;21667;-86
2023/07/01 01:45:57;;;;;;;8.00;2.70;;;;;;;18.31;91.63;99632.23;1475427;88;21459;-87
2023/07/01 01:48:23;;;;;;;9.40;3.30;;;;;;;18.25;91.91;99637.12;1469477;88;22236;-85
2023/07/01 01:50:52;;;;;;;6.03;3.03;;;;;;;18.16;91.87;99635.22;1474519;88;21528;-87
2023/07/01 01:53:20;;;;;;;7.37;3.03;;;;;;;18.11;92.00;99636.91;1475793;88;21385;-85
2023/07/01 01:55:47;;;;;;;9.00;2.87;;;;;;;18.07;92.25;99638.35;1468051;88;21517;-87
2023/07/01 01:58:14;;;;;;;7.57;3.33;;;;;;;18.01;92.58;99636.02;1471640;88;21377;-86
2023/07/01 02:00:40;;;;;;;3.07;2.67;;;;;;;18.00;93.16;99635.72;1473462;88;21477;-85
2023/07/01 02:03:06;;;;;;;5.80;3.50;;;;;;;17.98;93.26;99630.60;1477325;88;21429;-86
2023/07/01 02:05:32;;;;;;;8.57;3.33;;;;;;;17.98;93.15;99632.44;1473879;88;21437;-85
2023/07/01 02:08:02;;;;;;;3.83;2.83;;;;;;;17.99;93.05;99621.52;1469244;88;21488;-85
2023/07/01 02:10:27;;;;;;;6.10;3.00;;;;;;;17.99;92.83;99616.17;1470229;88;21414;-85
2023/07/01 02:12:53;;;;;;;5.80;4.23;;;;;;;17.99;92.62;99621.52;1467128;88;21369;-85
2023/07/01 02:15:19;;;;;;;8.23;3.70;;;;;;;17.98;92.67;99619.89;1474333;88;21355;-85
2023/07/01 02:17:45;;;;;;;4.47;3.40;;;;;;;17.97;92.73;99619.57;1482185;88;21370;-84
2023/07/01 02:20:12;;;;;;;7.60;2.93;;;;;;;17.96;92.71;99613.92;1472814;88;22641;-86
2023/07/01 02:22:38;;;;;;;4.07;3.30;;;;;;;17.97;92.78;99611.54;1476389;88;21453;-86
2023/07/01 02:25:06;;;;;;;9.57;4.10;;;;;;;18.00;92.71;99612.45;1470293;88;21363;-85
2023/07/01 02:27:32;;;;;;;7.60;3.20;;;;;;;18.03;92.59;99610.67;1472884;88;21304;-87
2023/07/01 02:29:59;;;;;;;8.77;3.80;;;;;;;18.06;92.37;99607.27;1475583;88;22563;-87
2023/07/01 02:32:25;;;;;;;8.23;3.60;;;;;;;18.07;92.09;99604.39;1470773;88;21414;-84
2023/07/01 02:34:52;;;;;;;4.07;3.20;;;;;;;18.07;91.81;99603.55;1475628;88;22331;-85
2023/07/01 02:37:18;;;;;;;8.80;3.17;;;;;;;18.06;91.47;99604.06;1456848;88;21318;-86
2023/07/01 02:39:46;;;;;;;7.50;2.90;;;;;;;18.04;91.37;99602.97;1473858;88;21510;-89
2023/07/01 02:42:12;;;;;;;4.63;3.77;;;;;;;18.04;91.45;99602.97;1444059;90;21335;-89
2023/07/01 02:44:38;;;;;;;3.90;2.83;;;;;;;18.07;91.34;99602.20;1480464;88;21448;-91
2023/07/01 02:47:05;;;;;;;11.57;3.93;;;;;;;18.09;91.24;99602.81;1473421;88;22271;-91
2023/07/01 02:49:31;;;;;;;7.80;3.27;;;;;;;18.11;91.06;99606.92;1474087;88;21356;-91
2023/07/01 02:51:57;;;;;;;5.13;3.47;;;;;;;18.12;90.81;99602.38;1472381;88;21407;-88
2023/07/01 02:54:23;;;;;;;6.13;3.37;;;;;;;18.11;90.59;99600.75;1476637;88;21318;-89
2023/07/01 02:56:50;;;;;;;7.20;3.50;;;;;;;18.11;90.33;99607.45;1481136;88;21623;-86
2023/07/01 02:59:16;;;;;;;6.67;3.07;;;;;;;18.10;90.11;99609.31;1477599;88;21348;-88
2023/07/01 03:01:47;;;;;;;7.60;2.97;;;;;;;18.12;90.22;99609.08;1484654;88;21311;-87
2023/07/01 03:04:13;;;;;;;4.27;3.20;;;;;;;18.14;90.16;99610.51;1476084;88;22442;-83
2023/07/01 03:06:39;;;;;;;6.23;2.80;;;;;;;18.17;90.18;99615.42;1477094;88;22028;-85
2023/07/01 03:09:07;;;;;;;3.60;2.60;;;;;;;18.21;90.14;99613.13;1477248;88;21362;-87
2023/07/01 03:11:35;;;;;;;8.10;3.63;;;;;;;18.24;89.98;99615.37;1474859;88;21480;-87
2023/07/01 03:14:03;;;;;;;4.63;3.40;;;;;;;18.27;89.83;99617.64;1483453;88;21355;-86
2023/07/01 03:16:30;;;;;;;5.87;3.60;;;;;;;18.28;89.73;99616.59;1477779;88;21473;-86
2023/07/01 03:18:59;;;;;;;6.60;3.67;;;;;;;18.32;89.62;99615.62;1477561;88;21445;-85
2023/07/01 03:21:26;;;;;;;5.50;3.90;;;;;;;18.33;89.58;99624.80;1471250;88;21435;-86
2023/07/01 03:23:53;;;;;;;5.73;3.47;;;;;;;18.37;89.56;99624.66;1474675;88;21356;-85
2023/07/01 03:26:19;;;;;;;5.80;2.83;;;;;;;18.43;89.63;99614.41;1465176;88;21990;-85
2023/07/01 03:28:45;;;;;;;6.83;3.70;;;;;;;18.49;89.65;99613.52;1478969;88;21916;-86
2023/07/01 03:31:11;;;;;;;6.13;3.57;;;;;;;18.57;89.46;99609.76;1473618;88;21327;-85
2023/07/01 03:33:38;;;;;;;5.73;3.47;;;;;;;18.68;89.28;99616.27;1478735;88;21576;-86
2023/07/01 03:36:04;;;;;;;4.83;3.30;;;;;;;18.75;88.94;99610.34;1481133;88;21408;-86
2023/07/01 03:38:30;;;;;;;3.57;3.03;;;;;;;18.82;88.70;99613.80;1470006;88;21583;-86
2023/07/01 03:40:56;;;;;;;6.17;3.67;;;;;;;18.89;88.53;99610.52;1473738;88;21457;-85
2023/07/01 03:43:23;;;;;;;11.40;3.80;;;;;;;19.03;88.09;99609.05;1466265;88;21348;-85
2023/07/01 03:45:51;;;;;;;4.55;2.90;;;;;;;19.03;88.09;99609.05;1471289;88;21569;-84
2023/07/01 03:48:17;;;;;;;3.45;2.47;;;;;;;19.09;88.31;99612.98;1468912;88;22398;-90
2023/07/01 03:50:43;;;;;;;6.97;3.35;;;;;;;19.19;88.23;99613.83;1475196;88;21393;-90
2023/07/01 03:53:10;;;;;;;6.78;3.67;;;;;;;19.28;87.94;99608.45;1467624;88;21451;-91
2023/07/01 03:55:36;;;;;;;6.25;3.30;;;;;;;19.36;87.54;99609.50;1477614;88;21547;-90
2023/07/01 03:58:04;;;;;;;8.80;3.47;;;;;;;19.43;87.11;99606.72;1477486;88;21355;-88
2023/07/01 04:00:30;;;;;;;7.00;3.45;;;;;;;19.49;86.78;99605.81;1475393;88;21850;-90
2023/07/01 04:03:02;;;;;;;4.62;3.17;;;;;;;19.56;86.36;99609.75;1477126;88;22308;-91
2023/07/01 04:05:24;;;;;;;7.33;3.72;;;;;;;19.59;86.21;99608.80;1476866;88;21918;-88
2023/07/01 04:07:50;;;;;;;5.08;3.65;;;;;;;19.62;85.88;99606.16;1473835;88;21407;-83
2023/07/01 04:10:17;;;;;;;6.15;3.50;;;;;;;19.66;85.57;99614.63;1480120;88;22180;-82
2023/07/01 04:12:43;;;;;;;3.37;2.80;;;;;;;19.68;85.43;99621.91;1485338;88;21413;-83
2023/07/01 04:15:10;;;;;;;6.97;2.80;;;;;;;19.71;85.26;99623.64;1459153;89;21506;-83
2023/07/01 04:17:46;;;;;;;9.55;3.90;;;;;;;19.78;85.11;99624.36;1483790;88;21525;-81
2023/07/01 04:20:17;;;;;;;4.60;3.45;;;;;;;19.86;84.80;99622.42;1478988;88;22132;-82
2023/07/01 04:22:42;;;;;;;5.75;3.27;;;;;;;19.89;84.53;99621.96;1471728;88;22300;-82
2023/07/01 04:25:09;;;;;;;5.55;3.05;;;;;;;19.91;84.19;99617.16;1484555;88;21289;-83
2023/07/01 04:27:36;;;;;;;5.08;3.60;;;;;;;19.92;84.00;99618.81;1481658;88;22309;-82
2023/07/01 04:30:08;;;;;;;8.18;3.77;;;;;;;19.92;83.79;99614.26;1479126;88;21459;-82
2023/07/01 04:32:33;;;;;;;5.50;3.15;;;;;;;19.92;83.64;99623.66;1480377;88;21421;-82
2023/07/01 04:34:59;;;;;;;8.85;4.33;;;;;;;19.91;83.53;99611.79;1477112;88;21436;-83
2023/07/01 04:37:25;;;;;;;5.37;3.40;;;;;;;19.90;83.57;99613.66;1459667;88;21562;-82
2023/07/01 04:39:51;;;;;;;5.17;2.80;;;;;;;19.93;83.61;99612.39;1478213;88;21311;-82
2023/07/01 04:42:18;;;;;;;8.45;3.62;;;;;;;19.97;83.60;99616.27;1474028;88;21370;-82
2023/07/01 04:44:53;;;;;;;5.37;3.47;;;;;;;20.00;83.40;99621.19;1448624;89;21445;-84
2023/07/01 04:47:13;;;;;;;3.80;3.40;;;;;;;20.02;83.27;99627.13;1479164;88;21481;-84
2023/07/01 04:49:39;;;;;;;5.90;3.35;;;;;;;20.06;82.98;99622.95;1479722;88;22396;-83
2023/07/01 04:52:06;;;;;;;4.20;3.80;;;;;;;20.06;82.88;99625.11;1465460;88;21436;-82
2023/07/01 04:54:32;;;;;;;10.55;3.55;;;;;;;20.05;82.77;99619.95;1463017;88;21377;-87
2023/07/01 04:56:58;;;;;;;6.83;4.10;;;;;;;20.03;82.63;99626.09;1457301;88;21370;-83
2023/07/01 04:59:24;;;;;;;10.10;3.50;;;;;;;20.01;82.52;99625.50;1482217;88;21385;-88
2023/07/01 05:01:51;;;;;;;13.72;3.70;;;;;;;19.98;82.44;99629.98;1478093;88;22419;-89
2023/07/01 05:04:17;;;;;;;6.78;3.35;;;;;;;19.95;82.20;99633.13;1479083;88;21650;-85
2023/07/01 05:06:43;;;;;;;6.08;3.45;;;;;;;19.92;82.50;99628.22;1452314;88;21370;-87
2023/07/01 05:09:09;;;;;;;5.95;3.65;;;;;;;19.91;82.67;99629.24;1485099;88;21582;-87
2023/07/01 05:11:35;;;;;;;4.65;3.05;;;;;;;19.92;82.98;99626.87;1476725;88;22170;-89
2023/07/01 05:14:02;;;;;;;12.13;3.90;;;;;;;19.93;82.99;99634.69;1479594;88;21392;-87
2023/07/01 05:16:28;;;;;;;8.53;4.40;;;;;;;19.93;82.72;99629.31;1487511;88;21489;-86
2023/07/01 05:18:56;;;;;;;8.10;3.72;;;;;;;19.96;82.64;99640.13;1485640;88;21444;-86
2023/07/01 05:21:22;;;;;;;7.42;3.95;;;;;;;19.95;82.54;99631.78;1477065;88;21377;-86
2023/07/01 05:23:48;;;;;;;7.30;4.05;;;;;;;19.98;82.49;99634.02;1457585;88;21347;-87
2023/07/01 05:26:14;;;;;;;9.30;3.50;;;;;;;20.01;82.58;99638.92;1476179;88;21524;-88
2023/07/01 05:28:41;;;;;;;4.03;3.27;;;;;;;20.08;82.59;99638.82;1481977;88;22205;-87
2023/07/01 05:31:07;;;;;;;5.53;3.77;;;;;;;20.15;82.45;99641.72;1478818;88;21370;-87
2023/07/01 05:33:33;;;;;;;8.43;3.58;;;;;;;20.27;82.45;99639.05;1459966;88;21501;-88
2023/07/01 05:35:59;;;;;;;7.37;3.83;;;;;;;20.41;82.62;99635.64;1486443;88;21370;-86
2023/07/01 05:38:26;;;;;;;9.80;3.47;;;;;;;20.55;82.27;99641.13;1481082;88;21376;-85
2023/07/01 05:40:52;;;;;;;9.43;3.83;;;;;;;20.67;81.68;99641.95;1476076;88;21540;-85
2023/07/01 05:43:18;;;;;;;8.53;4.12;;;;;;;20.79;81.34;99638.45;1481603;88;22302;-85
2023/07/01 05:45:44;;;;;;;6.05;4.15;;;;;;;20.92;80.92;99644.95;1482265;88;21451;-85
2023/07/01 05:48:11;;;;;;;5.85;3.95;;;;;;;21.05;80.54;99639.31;1463002;88;21472;-86
2023/07/01 05:50:38;;;;;;;9.73;3.83;;;;;;;21.13;79.52;99640.30;1475831;88;22169;-85
2023/07/01 05:53:05;;;;;;;6.80;3.83;;;;;;;21.25;79.58;99636.78;1479276;88;21605;-85
2023/07/01 05:55:31;;;;;;;9.80;3.95;;;;;;;21.38;79.54;99640.60;1476678;88;22221;-85
2023/07/01 05:57:57;;;;;;;7.17;3.92;;;;;;;21.49;79.32;99639.75;1477139;88;21385;-85
2023/07/01 06:00:23;;;;;;;9.08;4.87;;;;;;;21.66;79.23;99639.80;1478534;88;21303;-84
2023/07/01 06:02:49;;;;;;;9.98;5.28;;;;;;;21.93;78.56;99641.94;1458019;88;21650;-83
2023/07/01 06:05:15;;;;;;;6.42;4.35;;;;;;;21.93;78.56;99641.94;1455137;88;21421;-86
2023/07/01 06:07:41;;;;;;;7.75;4.62;;;;;;;22.05;78.37;99640.00;1458761;89;21282;-85
2023/07/01 06:10:08;;;;;;;4.62;3.90;;;;;;;22.19;78.30;99644.59;1436191;91;21516;-85
2023/07/01 06:12:34;;;;;;;9.48;4.85;;;;;;;22.34;77.85;99635.41;1438914;90;22292;-85
2023/07/01 06:15:01;;;;;;;4.90;3.98;;;;;;;22.48;77.27;99634.03;1412048;91;21353;-83
2023/07/01 06:17:27;;;;;;;9.48;4.97;;;;;;;22.61;76.82;99640.15;1432645;91;21361;-84
2023/07/01 06:19:53;;;;;;;12.18;4.28;;;;;;;22.72;76.03;99640.59;1443000;90;21449;-84
2023/07/01 06:22:19;;;;;;;14.38;3.70;;;;;;;22.82;75.45;99639.41;1426999;91;21383;-81
2023/07/01 06:24:46;;;;;;;12.95;3.62;;;;;;;22.96;75.35;99638.03;1443019;91;22263;-85
2023/07/01 06:27:12;;;;;;;7.37;4.20;;;;;;;23.12;74.67;99639.05;1434412;91;21317;-86
2023/07/01 06:29:38;;;;;;;7.40;3.70;;;;;;;23.28;73.89;99634.69;1439120;90;21414;-85
2023/07/01 06:32:05;;;;;;;9.40;4.00;;;;;;;23.40;72.96;99635.37;1436769;90;21399;-84
2023/07/01 06:34:32;;;;;;;6.40;3.33;;;;;;;23.52;70.67;99639.30;1430764;90;21361;-86
2023/07/01 06:36:58;;;;;;;8.65;4.00;;;;;;;23.57;69.87;99635.84;1434820;91;21443;-85
2023/07/01 06:43:26;;;;;;;;;;;;;;;23.73;69.10;99639.02;1439618;91;21442;-86
2023/07/01 06:45:52;;;;;;;8.05;3.45;;;;;;;23.84;67.36;99647.52;1435047;91;20300;-86
2023/07/01 06:48:18;;;;;;;8.43;3.42;;;;;;;23.93;67.29;99645.17;1445307;91;21376;-88
2023/07/01 06:50:53;;;;;;;12.00;3.17;;;;;;;24.02;66.99;99644.19;1427279;91;21457;-83
2023/07/01 06:57:20;;;;;;;;;;;;;;;24.24;65.98;99647.64;1443838;91;22447;-88
2023/07/01 06:59:46;;;;;;;7.40;3.42;;;;;;;24.42;66.01;99648.34;1431703;91;20829;-86
2023/07/01 07:02:12;;;;;;;5.47;3.40;;;;;;;24.52;65.19;99648.47;1435473;90;21338;-84
2023/07/01 07:04:38;;;;;;;4.97;2.95;;;;;;;24.63;64.86;99646.12;1443118;90;21451;-85
2023/07/01 07:07:05;;;;;;;8.90;2.60;;;;;;;24.73;63.68;99647.53;1442765;90;21989;-88
2023/07/01 07:09:31;;;;;;;13.58;3.20;;;;;;;24.80;63.17;99637.86;1457490;88;21945;-86
2023/07/01 07:11:57;;;;;;;4.67;2.77;;;;;;;24.92;62.91;99639.02;1457381;88;21591;-89
2023/07/01 07:14:24;;;;;;;8.78;3.62;;;;;;;24.98;62.17;99635.26;1458640;88;21566;-88
2023/07/01 07:16:52;;;;;;;4.72;3.50;;;;;;;25.06;61.56;99636.12;1448961;90;21407;-85
2023/07/01 07:19:18;;;;;;;5.67;2.65;;;;;;;25.14;60.79;99645.10;1475994;88;22347;-87
2023/07/01 07:21:44;;;;;;;7.37;2.67;;;;;;;25.24;60.91;99640.84;1475841;88;21370;-86
2023/07/01 07:24:10;;;;;;;12.05;4.30;;;;;;;25.34;60.48;99642.23;1478779;88;21319;-88
2023/07/01 07:26:37;;;;;;;8.43;3.25;;;;;;;25.39;59.37;99635.48;1481338;88;21377;-87
2023/07/01 07:29:04;;;;;;;8.95;3.37;;;;;;;25.51;59.11;99642.03;1456671;88;21392;-90
2023/07/01 07:31:30;;;;;;;8.10;2.77;;;;;;;25.59;59.16;99645.59;1458821;88;21332;-87
2023/07/01 07:33:56;;;;;;;7.83;3.37;;;;;;;25.69;59.37;99642.09;1477176;88;21348;-86
2023/07/01 07:36:22;;;;;;;7.20;4.20;;;;;;;25.76;58.00;99637.24;1478831;88;21495;-87
2023/07/01 07:38:48;;;;;;;11.10;3.80;;;;;;;25.78;57.48;99638.61;1478086;88;21499;-88
2023/07/01 07:41:15;;;;;;;11.53;3.37;;;;;;;25.82;56.82;99642.95;1480859;88;21392;-85
2023/07/01 07:43:42;;;;;;;5.97;2.80;;;;;;;25.90;57.48;99639.75;1460475;88;21340;-85
2023/07/01 07:46:08;;;;;;;4.35;2.83;;;;;;;26.02;57.24;99646.28;1478501;88;21377;-89
2023/07/01 07:48:34;;;;;;;5.25;3.15;;;;;;;26.05;56.88;99634.34;1481144;88;22276;-90
2023/07/01 07:51:00;;;;;;;4.45;2.87;;;;;;;26.16;56.88;99637.89;1439855;88;21363;-84
2023/07/01 07:53:26;;;;;;;11.22;2.80;;;;;;;26.30;57.11;99643.61;1482954;88;21428;-88
2023/07/01 07:55:52;;;;;;;6.70;2.90;;;;;;;26.45;57.10;99638.72;1468462;88;21421;-88
2023/07/01 07:58:18;;;;;;;10.40;3.00;;;;;;;26.55;56.23;99639.55;1474302;88;21569;-88
2023/07/01 08:00:45;;;;;;;4.50;3.35;;;;;;;26.67;56.02;99636.58;1474866;88;22323;-83
2023/07/01 08:03:12;;;;;;;6.87;3.47;;;;;;;26.72;55.13;99635.73;1481776;88;21341;-85
2023/07/01 08:05:38;;;;;;;6.35;2.12;;;;;;;26.78;54.53;99638.71;1480023;88;21647;-84
2023/07/01 08:08:05;;;;;;;8.10;3.00;;;;;;;26.84;55.06;99631.38;1459402;88;21511;-84
2023/07/01 08:10:31;;;;;;;5.33;2.90;;;;;;;26.93;54.73;99629.20;1482510;88;22546;-86
2023/07/01 08:12:57;;;;;;;7.85;2.75;;;;;;;26.92;53.29;99632.98;1483138;88;21450;-86
2023/07/01 08:15:23;;;;;;;4.87;2.98;;;;;;;26.97;53.55;99627.55;1477769;88;22258;-87
2023/07/01 08:17:49;;;;;;;6.85;2.83;;;;;;;27.07;52.89;99628.61;1458072;88;21355;-86
2023/07/01 08:20:16;;;;;;;10.03;3.30;;;;;;;27.14;52.89;99622.35;1481318;88;21568;-86
2023/07/01 08:22:42;;;;;;;6.60;2.83;;;;;;;27.23;52.01;99626.15;1480058;88;21304;-87
2023/07/01 08:25:09;;;;;;;5.87;2.47;;;;;;;27.29;51.25;99626.39;1459250;88;21499;-85
2023/07/01 08:27:35;;;;;;;6.62;2.77;;;;;;;27.34;51.77;99625.02;1480939;88;21356;-85
2023/07/01 08:30:02;;;;;;;4.33;2.20;;;;;;;27.37;50.68;99621.75;1483318;88;21347;-84
2023/07/01 08:32:28;;;;;;;7.97;2.70;;;;;;;27.42;51.37;99624.45;1455262;89;21378;-83
2023/07/01 08:34:54;;;;;;;3.67;2.70;;;;;;;27.55;51.32;99629.00;1483865;88;21541;-85
2023/07/01 08:37:20;;;;;;;6.75;2.65;;;;;;;27.72;51.50;99633.53;1479530;88;21392;-85
2023/07/01 08:39:46;;;;;;;8.90;2.72;;;;;;;27.78;50.64;99633.77;1477271;88;22264;-86
2023/07/01 08:42:19;;;;;;;7.42;2.80;;;;;;;27.79;50.68;99630.53;1479864;88;21296;-85
2023/07/01 08:44:46;;;;;;;5.08;2.80;;;;;;;27.85;51.08;99632.95;1478710;88;21399;-87
2023/07/01 08:47:15;;;;;;;5.62;2.60;;;;;;;27.83;50.82;99629.70;1454266;89;21515;-85
2023/07/01 08:49:44;;;;;;;9.33;2.53;;;;;;;27.86;50.36;99625.05;1481120;88;21513;-85
2023/07/01 08:52:13;;;;;;;5.53;2.62;;;;;;;27.86;50.19;99626.97;1457474;88;22377;-82
2023/07/01 08:54:40;;;;;;;5.53;2.87;;;;;;;27.88;49.92;99622.07;1478874;88;21399;-85
2023/07/01 08:57:09;;;;;;;8.73;2.33;;;;;;;27.93;49.83;99621.20;1480390;88;21340;-85
2023/07/01 08:59:36;;;;;;;6.00;2.53;;;;;;;28.00;49.63;99617.64;1481138;88;21325;-85
2023/07/01 09:02:02;;;;;;;4.72;2.50;;;;;;;28.02;48.90;99609.98;1480099;88;21969;-85
2023/07/01 09:04:30;;;;;;;11.38;3.05;;;;;;;28.05;48.95;99613.50;1471254;88;22039;-84
2023/07/01 09:07:00;;;;;;;4.55;2.67;;;;;;;28.09;48.23;99614.58;1449979;89;21563;-84
2023/07/01 09:09:26;;;;;;;4.58;2.05;;;;;;;28.16;47.87;99613.69;1474315;88;21621;-84
2023/07/01 09:11:52;;;;;;;6.15;2.52;;;;;;;28.17;46.89;99620.77;1457274;88;22389;-85
2023/07/01 09:14:18;;;;;;;7.90;2.45;;;;;;;28.21;47.29;99614.21;1454668;89;21371;-82
2023/07/01 09:16:45;;;;;;;6.40;2.90;;;;;;;28.31;47.18;99612.23;1459596;88;21354;-83
2023/07/01 09:19:16;;;;;;;6.65;2.60;;;;;;;28.46;47.46;99610.51;1480622;88;21362;-86
2023/07/01 09:21:40;;;;;;;3.52;2.25;;;;;;;28.56;46.11;99607.67;1478847;88;21436;-85
2023/07/01 09:24:08;;;;;;;4.53;1.75;;;;;;;28.61;45.71;99608.99;1480373;88;21437;-82
2023/07/01 09:26:34;;;;;;;3.67;2.35;;;;;;;28.75;46.35;99611.30;1458598;88;22316;-83
2023/07/01 09:29:15;;;;;;;3.55;2.22;;;;;;;28.90;45.55;99609.52;1475296;88;21370;-84
2023/07/01 09:31:49;;;;;;;14.80;2.40;;;;;;;28.91;44.17;99605.69;1479424;88;22458;-84
2023/07/01 09:34:17;;;;;;;8.35;2.83;;;;;;;28.95;44.21;99598.58;1480128;88;22283;-83
2023/07/01 09:36:44;;;;;;;9.23;2.72;;;;;;;29.08;44.27;99600.62;1480709;88;22779;-83
2023/07/01 09:39:10;;;;;;;8.28;2.27;;;;;;;29.18;43.70;99601.88;1487928;88;21414;-85
2023/07/01 09:41:37;;;;;;;6.37;2.80;;;;;;;29.27;43.05;99597.14;1481284;88;21362;-83
2023/07/01 09:44:16;;;;;;;5.30;2.70;;;;;;;29.35;42.76;99590.49;1474206;88;21445;-82
2023/07/01 09:46:46;;;;;;;3.25;2.30;;;;;;;29.44;43.03;99585.20;1442733;88;21333;-84
2023/07/01 09:49:12;;;;;;;9.93;2.70;;;;;;;29.44;42.56;99586.56;1375882;91;22053;-85
2023/07/01 09:51:51;;;;;;;5.87;3.40;;;;;;;29.54;43.00;99585.05;1404342;88;21296;-84
2023/07/01 09:54:29;;;;;;;4.03;2.90;;;;;;;29.64;42.98;99591.77;1565460;88;21225;-84
2023/07/01 09:56:56;;;;;;;5.62;2.33;;;;;;;29.70;42.72;99584.88;1565454;88;21238;-85
2023/07/01 09:59:23;;;;;;;4.03;2.20;;;;;;;29.75;40.50;99588.87;1382793;89;21251;-86
2023/07/01 10:01:55;;;;;;;6.05;2.10;;;;;;;29.75;40.73;99586.14;1428342;88;21364;-85
2023/07/01 10:04:25;;;;;;;3.02;1.77;;;;;;;29.84;40.74;99579.75;1479475;88;21355;-84
2023/07/01 10:06:50;;;;;;;4.85;2.22;;;;;;;29.85;40.93;99569.64;1476214;88;21576;-84
2023/07/01 10:09:17;;;;;;;6.53;2.00;;;;;;;29.81;39.67;99569.99;1480858;88;21532;-86
2023/07/01 10:11:44;;;;;;;4.60;2.10;;;;;;;29.90;41.33;99569.57;1458673;88;21480;-83
2023/07/01 10:14:11;;;;;;;4.72;2.45;;;;;;;30.05;41.56;99576.70;1479140;88;22354;-82
2023/07/01 10:16:47;;;;;;;7.47;2.62;;;;;;;30.10;40.79;99576.06;1479212;88;21303;-84
2023/07/01 10:19:33;;;;;;;3.33;2.00;;;;;;;30.07;39.94;99567.11;1479699;88;21614;-82
2023/07/01 10:22:23;;;;;;;6.30;1.87;;;;;;;30.14;40.20;99567.52;1481452;88;22332;-83
2023/07/01 10:25:07;;;;;;;8.65;2.08;;;;;;;30.14;39.22;99563.43;1481907;88;21348;-82
2023/07/01 10:27:47;;;;;;;4.42;2.22;;;;;;;30.22;39.81;99557.08;1478318;88;22486;-84
2023/07/01 10:30:14;;;;;;;8.08;2.02;;;;;;;30.24;39.10;99557.04;1482851;88;22393;-83
2023/07/01 10:32:41;;;;;;;4.17;2.00;;;;;;;30.27;38.70;99551.55;1402764;88;21473;-82
2023/07/01 10:35:14;;;;;;;4.37;2.00;;;;;;;30.41;39.46;99555.08;1402638;88;22126;-82
2023/07/01 10:37:40;;;;;;;4.85;1.82;;;;;;;30.50;38.88;99549.77;1466066;88;21260;-83
2023/07/01 10:40:30;;;;;;;5.05;2.20;;;;;;;30.60;38.61;99546.02;1380541;89;21291;-82
2023/07/01 10:43:30;;;;;;;4.97;2.05;;;;;;;30.72;38.64;99539.50;1411537;88;21363;-84
2023/07/01 10:46:10;;;;;;;9.15;1.90;;;;;;;30.81;38.70;99543.17;1565439;88;21193;-83
2023/07/01 10:48:41;;;;;;;3.72;2.30;;;;;;;30.63;38.60;99533.13;1566270;88;21252;-82
2023/07/01 10:51:12;;;;;;;3.37;1.70;;;;;;;30.70;39.08;99533.52;1542518;88;21231;-84
2023/07/01 10:54:02;;;;;;;6.28;2.35;;;;;;;30.85;38.78;99531.11;1443365;88;21920;-84
2023/07/01 10:56:31;;;;;;;9.53;2.47;;;;;;;30.88;38.89;99529.93;1565605;88;21949;-86
2023/07/01 10:59:21;;;;;;;4.87;2.77;;;;;;;30.94;38.06;99528.71;1400365;88;22140;-83
2023/07/01 11:01:51;;;;;;;;;;;;;;;31.01;37.43;99524.19;1386723;89;21283;-82
2023/07/01 11:04:19;;;;;;;4.20;1.98;;;;;;;30.81;38.21;99522.69;1358509;90;20250;-83
2023/07/01 11:06:54;;;;;;;6.55;2.72;;;;;;;30.78;38.66;99520.53;1504576;89;21297;-84
2023/07/01 11:09:32;;;;;;;2.50;2.00;;;;;;;30.88;38.43;99521.73;1396173;88;21462;-83
2023/07/01 11:12:01;;;;;;;8.40;2.00;;;;;;;31.03;38.78;99524.14;1393934;89;21304;-84
2023/07/01 11:14:34;;;;;;;2.87;2.02;;;;;;;31.16;38.29;99514.85;1395090;88;21311;-81
2023/07/01 11:17:17;;;;;;;2.90;2.37;;;;;;;31.13;37.34;99510.84;1400054;88;21437;-83
2023/07/01 11:19:46;;;;;;;9.10;2.47;;;;;;;31.06;37.64;99509.62;1559703;88;21381;-84
2023/07/01 11:22:16;;;;;;;12.88;3.00;;;;;;;31.16;38.53;99503.92;1383292;89;21282;-82
2023/07/01 11:24:43;;;;;;;6.22;2.30;;;;;;;31.22;38.11;99506.83;1375444;90;21343;-82
2023/07/01 11:27:09;;;;;;;4.37;2.45;;;;;;;31.08;38.27;99505.48;1398768;88;22303;-83
2023/07/01 11:29:40;;;;;;;5.42;2.40;;;;;;;30.81;38.65;99506.30;1398534;88;21186;-83
2023/07/01 11:32:17;;;;;;;2.87;2.05;;;;;;;30.78;39.09;99506.88;1401340;90;21693;-84
2023/07/01 11:34:42;;;;;;;4.08;1.90;;;;;;;30.74;38.72;99497.69;1475099;88;21609;-81
2023/07/01 11:37:08;;;;;;;2.60;1.90;;;;;;;30.87;38.30;99505.08;1472295;88;21822;-83
2023/07/01 11:39:45;;;;;;;7.30;2.25;;;;;;;30.97;37.75;99501.34;1457156;88;22284;-83
2023/07/01 11:42:11;;;;;;;5.72;2.12;;;;;;;31.13;38.14;99501.27;1474151;88;22384;-84
2023/07/01 11:44:38;;;;;;;4.45;2.20;;;;;;;31.18;37.52;99494.30;1473311;88;21378;-82
2023/07/01 11:47:13;;;;;;;6.83;2.10;;;;;;;31.25;37.38;99500.73;1450025;90;21416;-83